Curtis Bay, Maryland
Current Conditions -  °F | °C
As of 7:20 AM on Monday 26 Jan 2015 (Local Time) from KBWI Reporting Station
Light Snow Light Snow  
Wind Chill: 21°   Ceiling: 1400
Heat Index: 32°   Visibility: 1.2mi
Dew Point: 28°   Wind: 17mph
Humidity: 87%   Direction: 80°E
Pressure: 29.83"   Gusts: NA
Location:  39.23°N, 76.59°W
Report Text: KBWI 261220Z 08015KT 1 1/4SM -SN BR BKN014 OVC026 00/M02 A2983 RMK AO2 P0000
Loading
Personal Weather Stations






























Interactive Weather Map New forecast layout! Learn more

10-Day Weather Forecast

Advertisements
Track Severe Weather on mobile